Time;durP1;ratioP1;P1;durP2;ratioP2;P2;SDS_P1;SDS_P2;PMS_P1;PMS_P2;Temp;Humidity;BMP_temperature;BMP_pressure;BME280_temperature;BME280_humidity;BME280_pressure;Samples;Min_cycle;Max_cycle;Signal;HPM_P1;HPM_P2
2021/01/27 00:01:29;;;;;;;3.47;1.33;;;3.50;99.90;;;;;;10396818;27;20033;-53
2021/01/27 00:06:50;;;;;;;1.70;0.70;;;3.50;99.90;;;;;;10382660;27;20044;-53
2021/01/27 00:12:11;;;;;;;2.83;1.40;;;3.50;99.90;;;;;;10380056;27;20140;-53
2021/01/27 00:17:32;;;;;;;2.10;1.42;;;3.50;99.90;;;;;;10392939;27;20674;-53
2021/01/27 00:22:54;;;;;;;2.60;1.10;;;3.60;99.90;;;;;;10387073;28;20084;-53
2021/01/27 00:28:14;;;;;;;3.17;1.38;;;3.40;99.90;;;;;;10390161;28;20092;-54
2021/01/27 00:33:35;;;;;;;4.40;1.23;;;3.40;99.90;;;;;;10391376;27;20037;-53
2021/01/27 00:38:56;;;;;;;2.97;1.27;;;3.30;99.90;;;;;;10398640;27;20033;-53
2021/01/27 00:44:18;;;;;;;2.72;1.27;;;3.50;99.90;;;;;;10393710;27;20516;-53
2021/01/27 00:49:39;;;;;;;2.65;1.13;;;3.40;99.90;;;;;;10395836;27;20045;-53
2021/01/27 00:55:00;;;;;;;2.42;1.20;;;3.40;99.90;;;;;;10380027;27;20055;-53
2021/01/27 01:00:27;;;;;;;2.78;1.50;;;3.30;99.90;;;;;;10394263;27;20041;-53
2021/01/27 01:05:48;;;;;;;3.50;1.20;;;3.30;99.90;;;;;;10392045;27;20049;-53
2021/01/27 01:11:09;;;;;;;5.65;2.20;;;3.20;99.90;;;;;;10392361;27;20049;-53
2021/01/27 01:16:31;;;;;;;3.60;1.83;;;3.30;99.90;;;;;;10392132;27;20126;-53
2021/01/27 01:21:51;;;;;;;2.67;1.60;;;3.20;99.90;;;;;;10393782;28;20037;-53
2021/01/27 01:27:12;;;;;;;4.40;1.17;;;2.90;99.90;;;;;;10391657;28;20076;-53
2021/01/27 01:32:33;;;;;;;5.85;2.03;;;2.80;99.90;;;;;;10383878;27;20041;-53
2021/01/27 01:37:55;;;;;;;5.72;2.40;;;2.80;99.90;;;;;;10394426;27;20070;-53
2021/01/27 01:43:20;;;;;;;3.67;2.00;;;2.80;99.90;;;;;;10392670;27;20037;-53
2021/01/27 01:48:44;;;;;;;5.43;1.83;;;2.80;99.90;;;;;;10391016;27;20037;-53
2021/01/27 01:54:33;;;;;;;5.00;2.25;;;2.90;99.90;;;;;;10389728;27;20037;-54
2021/01/27 01:59:57;;;;;;;3.70;1.37;;;2.90;99.90;;;;;;10399707;27;20034;-53
2021/01/27 02:05:21;;;;;;;5.45;2.03;;;2.90;99.90;;;;;;10399583;27;20410;-53
2021/01/27 02:10:42;;;;;;;3.78;1.98;;;2.80;99.90;;;;;;10388607;28;20035;-54
2021/01/27 02:16:18;;;;;;;4.72;2.28;;;2.90;99.90;;;;;;10398731;27;20053;-53
2021/01/27 02:22:27;;;;;;;4.07;1.67;;;3.00;99.90;;;;;;10396502;28;20060;-53
2021/01/27 02:27:51;;;;;;;5.50;1.80;;;3.10;99.90;;;;;;10397403;27;20489;-53
2021/01/27 02:33:32;;;;;;;5.57;1.42;;;2.90;99.90;;;;;;10397945;28;20048;-54
2021/01/27 02:39:04;;;;;;;6.65;1.73;;;2.90;99.90;;;;;;10386358;28;20119;-53
2021/01/27 02:44:41;;;;;;;3.83;2.15;;;2.90;99.90;;;;;;10398941;27;20033;-54
2021/01/27 02:50:07;;;;;;;3.75;1.48;;;2.90;99.90;;;;;;10394116;27;20333;-53
2021/01/27 02:55:44;;;;;;;2.67;1.13;;;2.80;99.90;;;;;;10399675;27;20292;-54
2021/01/27 03:01:16;;;;;;;12.27;1.40;;;2.90;99.90;;;;;;10395684;28;20041;-53
2021/01/27 03:06:40;;;;;;;4.28;1.30;;;3.00;99.90;;;;;;10394463;27;20037;-53
2021/01/27 03:12:01;;;;;;;3.80;1.95;;;3.00;99.90;;;;;;10403506;27;20511;-54
2021/01/27 03:17:27;;;;;;;3.83;1.40;;;3.00;99.90;;;;;;10402229;27;20042;-54
2021/01/27 03:23:09;;;;;;;2.38;1.13;;;2.90;99.90;;;;;;10396234;27;20534;-53
2021/01/27 03:28:33;;;;;;;4.78;1.20;;;2.90;99.90;;;;;;10400239;27;20047;-54
2021/01/27 03:34:00;;;;;;;5.00;1.92;;;2.90;99.90;;;;;;10393945;27;20496;-54
2021/01/27 03:39:25;;;;;;;3.42;1.20;;;2.80;99.90;;;;;;10400442;27;20056;-54
2021/01/27 03:44:56;;;;;;;2.65;1.02;;;2.70;99.90;;;;;;10384650;27;20041;-54
2021/01/27 03:50:23;;;;;;;2.75;1.40;;;2.70;99.90;;;;;;10400385;27;20036;-54
2021/01/27 03:55:52;;;;;;;8.07;1.75;;;2.70;99.90;;;;;;10397990;27;20046;-53
2021/01/27 04:01:18;;;;;;;3.55;1.63;;;2.50;99.90;;;;;;10395564;27;20440;-54
2021/01/27 04:06:41;;;;;;;5.95;1.60;;;2.60;99.90;;;;;;10395197;27;20576;-54
2021/01/27 04:12:02;;;;;;;5.18;1.25;;;2.60;99.90;;;;;;10395000;27;20340;-53
2021/01/27 04:17:30;;;;;;;3.90;1.15;;;2.70;99.90;;;;;;10390164;27;20041;-54
2021/01/27 04:22:51;;;;;;;3.40;1.20;;;2.60;99.90;;;;;;10391084;28;20086;-53
2021/01/27 04:28:12;;;;;;;4.82;1.48;;;2.50;99.90;;;;;;10394500;27;20140;-54
2021/01/27 04:33:33;;;;;;;2.72;1.00;;;2.30;99.90;;;;;;10394701;28;20044;-54
2021/01/27 04:38:54;;;;;;;3.10;1.08;;;2.40;99.90;;;;;;10382822;27;20570;-54
2021/01/27 04:44:15;;;;;;;2.80;0.88;;;2.40;99.90;;;;;;10396330;28;20385;-54
2021/01/27 04:49:44;;;;;;;2.97;1.05;;;2.20;99.90;;;;;;10395691;27;20116;-53
2021/01/27 04:55:20;;;;;;;4.00;1.67;;;2.20;99.90;;;;;;10392152;27;20040;-53
2021/01/27 05:00:58;;;;;;;2.55;1.40;;;2.20;99.90;;;;;;10392055;28;20049;-54
2021/01/27 05:06:30;;;;;;;4.20;1.55;;;2.20;99.90;;;;;;10390626;27;20413;-54
2021/01/27 05:11:53;;;;;;;1.27;0.75;;;2.20;99.90;;;;;;10395705;27;20244;-54
2021/01/27 05:17:18;;;;;;;2.92;1.25;;;2.30;99.90;;;;;;10393655;28;20040;-53
2021/01/27 05:22:40;;;;;;;4.03;1.40;;;2.30;99.90;;;;;;10393384;28;20037;-54
2021/01/27 05:28:06;;;;;;;2.90;1.50;;;2.40;99.90;;;;;;10392128;28;20079;-54
2021/01/27 05:33:45;;;;;;;2.88;1.52;;;2.40;99.90;;;;;;10386608;28;20037;-54
2021/01/27 05:39:14;;;;;;;6.30;2.10;;;2.40;99.90;;;;;;10394270;28;20368;-54
2021/01/27 05:44:35;;;;;;;2.88;1.25;;;2.40;99.90;;;;;;10390781;28;20041;-54
2021/01/27 05:49:56;;;;;;;5.05;1.67;;;2.50;99.90;;;;;;10393528;27;20179;-54
2021/01/27 05:55:18;;;;;;;5.32;1.23;;;2.50;99.90;;;;;;10397748;27;20042;-54
2021/01/27 06:00:39;;;;;;;5.35;1.40;;;2.50;99.90;;;;;;10397281;27;20037;-54
2021/01/27 06:06:10;;;;;;;3.88;2.03;;;2.50;99.90;;;;;;10397867;27;20124;-54
2021/01/27 06:11:31;;;;;;;4.40;1.42;;;2.50;99.90;;;;;;10393403;27;20041;-54
2021/01/27 06:16:52;;;;;;;5.03;2.30;;;2.50;99.90;;;;;;10397835;27;20034;-54
2021/01/27 06:22:43;;;;;;;3.85;1.95;;;2.50;99.90;;;;;;10374953;28;20317;-55
2021/01/27 06:28:16;;;;;;;3.05;1.30;;;2.40;99.90;;;;;;10390091;28;20298;-55
2021/01/27 06:33:49;;;;;;;3.28;1.45;;;2.50;99.90;;;;;;10393042;27;20034;-55
2021/01/27 06:39:20;;;;;;;4.20;1.33;;;2.50;99.90;;;;;;10390174;27;20072;-55
2021/01/27 06:44:48;;;;;;;3.83;1.67;;;2.50;99.90;;;;;;10397870;27;20085;-54
2021/01/27 06:50:21;;;;;;;4.37;1.70;;;2.50;99.90;;;;;;10396254;27;20030;-54
2021/01/27 06:55:59;;;;;;;4.28;1.50;;;2.50;99.90;;;;;;10395403;27;20459;-54
2021/01/27 07:01:47;;;;;;;8.03;2.80;;;2.60;99.90;;;;;;10399228;28;20033;-54
2021/01/27 07:07:40;;;;;;;4.72;2.15;;;2.50;99.90;;;;;;10393451;28;20559;-54
2021/01/27 07:13:22;;;;;;;4.28;1.75;;;2.50;99.90;;;;;;10394116;27;20029;-54
2021/01/27 07:19:15;;;;;;;2.60;1.90;;;2.60;99.90;;;;;;10392432;27;20049;-55
2021/01/27 07:25:09;;;;;;;3.80;1.60;;;2.60;99.90;;;;;;10398438;27;20416;-55
2021/01/27 07:30:53;;;;;;;3.40;1.40;;;2.60;99.90;;;;;;10406790;27;20430;-54
2021/01/27 07:36:46;;;;;;;6.28;1.63;;;2.70;99.90;;;;;;10403619;27;20395;-55
2021/01/27 07:42:15;;;;;;;3.75;1.65;;;2.80;99.90;;;;;;10400376;27;20029;-54
2021/01/27 07:47:50;;;;;;;5.78;1.45;;;2.80;99.90;;;;;;10402474;27;20475;-55
2021/01/27 07:53:14;;;;;;;2.88;1.45;;;2.80;99.90;;;;;;10396974;27;20120;-55
2021/01/27 07:58:41;;;;;;;3.00;1.38;;;2.80;99.90;;;;;;10386784;27;20048;-54
2021/01/27 08:04:21;;;;;;;4.40;2.03;;;2.90;99.90;;;;;;10397109;28;20346;-55
2021/01/27 08:09:42;;;;;;;;;;;2.90;99.90;;;;;;10398440;28;20064;-55
2021/01/27 08:15:24;;;;;;;4.03;1.55;;;2.90;99.90;;;;;;10398297;27;20228;-54
2021/01/27 08:20:46;;;;;;;4.57;2.00;;;2.90;99.90;;;;;;10404310;27;20417;-54
2021/01/27 08:26:08;;;;;;;6.38;3.00;;;2.90;99.90;;;;;;10399601;27;20056;-55
2021/01/27 08:31:29;;;;;;;4.38;1.55;;;3.00;99.90;;;;;;10372318;27;20040;-54
2021/01/27 08:36:49;;;;;;;6.40;2.25;;;3.00;99.90;;;;;;10404003;27;20077;-54
2021/01/27 08:42:42;;;;;;;4.50;2.72;;;3.00;99.90;;;;;;10398175;27;20138;-54
2021/01/27 08:48:05;;;;;;;6.05;3.13;;;3.10;99.90;;;;;;10391630;28;20257;-55
2021/01/27 08:53:47;;;;;;;6.80;2.47;;;3.10;99.90;;;;;;10396777;27;20037;-55
2021/01/27 08:59:28;;;;;;;7.15;2.17;;;3.20;99.90;;;;;;10394799;27;20044;-54
2021/01/27 09:04:49;;;;;;;4.80;2.20;;;3.20;99.90;;;;;;10403052;27;20041;-55
2021/01/27 09:10:10;;;;;;;5.78;2.25;;;3.20;99.90;;;;;;10396629;27;20046;-54
2021/01/27 09:15:34;;;;;;;6.07;2.40;;;3.40;99.90;;;;;;10385016;28;20076;-54
2021/01/27 09:21:04;;;;;;;7.75;1.92;;;3.50;99.90;;;;;;10395508;27;20045;-54
2021/01/27 09:26:37;;;;;;;4.72;2.33;;;3.50;99.90;;;;;;10398906;27;20076;-54
2021/01/27 09:32:17;;;;;;;5.47;1.67;;;3.60;99.90;;;;;;10395245;27;20081;-55
2021/01/27 09:37:49;;;;;;;3.80;1.55;;;3.70;99.90;;;;;;10395940;27;20442;-55
2021/01/27 09:43:14;;;;;;;6.90;2.97;;;3.70;99.90;;;;;;10398875;28;20097;-55
2021/01/27 09:48:36;;;;;;;6.00;2.65;;;3.80;99.90;;;;;;10397495;28;20045;-55
2021/01/27 09:54:00;;;;;;;7.22;2.60;;;3.90;99.90;;;;;;10388221;27;20041;-55
2021/01/27 09:59:22;;;;;;;7.18;2.35;;;4.00;99.90;;;;;;10402037;28;20037;-55
2021/01/27 10:04:43;;;;;;;6.57;2.50;;;4.00;99.90;;;;;;10390567;27;20045;-55
2021/01/27 10:10:09;;;;;;;9.98;3.13;;;4.10;99.90;;;;;;10377445;27;20042;-55
2021/01/27 10:15:34;;;;;;;2.97;1.25;;;4.10;99.90;;;;;;10392918;27;20470;-55
2021/01/27 10:21:07;;;;;;;9.57;2.63;;;4.10;99.90;;;;;;10401221;27;20060;-55
2021/01/27 10:26:37;;;;;;;7.38;2.65;;;4.30;99.90;;;;;;10402270;27;20057;-55
2021/01/27 10:32:37;;;;;;;10.00;3.75;;;4.30;99.90;;;;;;10406991;27;20037;-55
2021/01/27 10:38:01;;;;;;;8.30;2.45;;;4.40;99.90;;;;;;10401904;27;20075;-55
2021/01/27 10:43:22;;;;;;;9.57;3.42;;;4.50;99.90;;;;;;10403763;28;20061;-55
2021/01/27 10:48:43;;;;;;;9.80;3.10;;;4.70;99.90;;;;;;10401067;27;20057;-55
2021/01/27 10:54:04;;;;;;;12.38;4.38;;;4.80;99.90;;;;;;10399470;27;20351;-55
2021/01/27 10:59:25;;;;;;;10.68;3.53;;;4.90;99.90;;;;;;10402062;27;20038;-55
2021/01/27 11:04:46;;;;;;;10.68;4.07;;;5.00;99.90;;;;;;10404290;28;20042;-55
2021/01/27 11:10:08;;;;;;;14.20;4.97;;;5.10;99.90;;;;;;10408186;28;20045;-55
2021/01/27 11:15:29;;;;;;;15.93;4.78;;;5.10;99.90;;;;;;10408798;27;20511;-55
2021/01/27 11:20:51;;;;;;;7.63;3.75;;;5.20;99.90;;;;;;10401749;28;20174;-55
2021/01/27 11:26:18;;;;;;;12.90;3.90;;;5.30;99.90;;;;;;10405545;27;20134;-55
2021/01/27 11:31:39;;;;;;;9.25;3.38;;;5.50;99.90;;;;;;10400032;28;20114;-55
2021/01/27 11:37:00;;;;;;;8.32;3.45;;;5.70;99.90;;;;;;10408027;27;20045;-55
2021/01/27 11:42:21;;;;;;;10.57;3.47;;;5.90;99.90;;;;;;10395419;28;20500;-55
2021/01/27 11:47:42;;;;;;;15.82;2.80;;;6.00;99.90;;;;;;10401154;28;20555;-55
2021/01/27 11:53:03;;;;;;;10.65;3.83;;;6.20;99.90;;;;;;10403989;28;20046;-55
2021/01/27 11:58:25;;;;;;;9.73;3.25;;;6.30;99.90;;;;;;10387430;27;20145;-55
2021/01/27 12:03:46;;;;;;;4.65;2.08;;;6.40;99.90;;;;;;10399984;28;20077;-55
2021/01/27 12:09:07;;;;;;;4.75;2.50;;;6.40;99.90;;;;;;10401874;28;20497;-55
2021/01/27 12:14:28;;;;;;;8.98;2.28;;;6.40;99.90;;;;;;10399083;28;20407;-55
2021/01/27 12:19:49;;;;;;;12.95;2.55;;;6.60;99.90;;;;;;10397963;27;20037;-55
2021/01/27 12:25:11;;;;;;;8.85;3.30;;;6.50;99.90;;;;;;10403708;28;20076;-55
2021/01/27 12:30:32;;;;;;;8.48;2.45;;;6.60;99.90;;;;;;10395332;28;20575;-55
2021/01/27 12:35:53;;;;;;;11.02;2.80;;;6.60;99.90;;;;;;10389823;28;20429;-56
2021/01/27 12:41:14;;;;;;;8.63;2.40;;;6.60;99.90;;;;;;10397916;28;20045;-55
2021/01/27 12:46:35;;;;;;;6.15;2.42;;;6.60;99.90;;;;;;10398232;27;20515;-55
2021/01/27 12:51:56;;;;;;;9.13;3.58;;;6.60;99.90;;;;;;10403401;28;20122;-55
2021/01/27 12:57:17;;;;;;;11.27;2.00;;;6.60;99.90;;;;;;10392198;27;20045;-55
2021/01/27 13:02:38;;;;;;;5.50;1.77;;;6.60;99.90;;;;;;10393882;28;20042;-55
2021/01/27 13:07:59;;;;;;;11.95;2.75;;;6.70;99.90;;;;;;10396408;27;20033;-55
2021/01/27 13:13:20;;;;;;;5.63;2.03;;;6.70;99.90;;;;;;10405477;27;20346;-55
2021/01/27 13:18:41;;;;;;;5.30;2.45;;;6.90;99.90;;;;;;10397632;28;20117;-55
2021/01/27 13:24:02;;;;;;;9.98;2.58;;;6.90;99.90;;;;;;10394568;28;20440;-55
2021/01/27 13:29:23;;;;;;;10.88;1.88;;;7.00;99.90;;;;;;10400992;27;20045;-55
2021/01/27 13:34:44;;;;;;;8.00;2.13;;;7.10;99.90;;;;;;10398393;28;20073;-55
2021/01/27 13:40:07;;;;;;;7.32;2.28;;;7.30;99.90;;;;;;10396990;28;20037;-55
2021/01/27 13:45:29;;;;;;;8.07;3.22;;;7.40;99.90;;;;;;10395976;28;20037;-56
2021/01/27 13:50:50;;;;;;;6.85;2.42;;;7.50;99.90;;;;;;10397167;28;20134;-55
2021/01/27 13:56:11;;;;;;;7.20;2.15;;;7.40;99.90;;;;;;10408162;28;20519;-55
2021/01/27 14:01:33;;;;;;;4.80;1.23;;;7.20;99.90;;;;;;10403110;27;20494;-55
2021/01/27 14:06:54;;;;;;;8.65;2.47;;;7.30;99.90;;;;;;10404421;27;20037;-55
2021/01/27 14:12:15;;;;;;;4.97;2.28;;;7.30;99.90;;;;;;10411641;27;20030;-56
2021/01/27 14:17:36;;;;;;;5.28;2.42;;;7.30;99.90;;;;;;10406212;27;20068;-55
2021/01/27 14:22:57;;;;;;;5.88;1.38;;;7.30;99.90;;;;;;10407136;27;20114;-55
2021/01/27 14:28:18;;;;;;;5.05;1.90;;;7.30;99.90;;;;;;10409728;27;20051;-55
2021/01/27 14:33:39;;;;;;;10.85;2.97;;;7.30;99.90;;;;;;10399276;28;20035;-55
2021/01/27 14:39:00;;;;;;;6.15;1.42;;;7.40;99.90;;;;;;10390991;28;20508;-55
2021/01/27 14:44:21;;;;;;;5.85;1.95;;;7.30;99.90;;;;;;10402262;28;20052;-55
2021/01/27 14:49:42;;;;;;;6.03;1.67;;;7.20;99.90;;;;;;10403941;28;20507;-55
2021/01/27 14:55:04;;;;;;;5.15;1.73;;;7.30;99.90;;;;;;10400564;27;20076;-55
2021/01/27 15:00:28;;;;;;;4.38;1.77;;;7.40;99.90;;;;;;10407699;28;20041;-55
2021/01/27 15:05:49;;;;;;;7.90;1.55;;;7.30;99.90;;;;;;10402413;28;20439;-55
2021/01/27 15:11:10;;;;;;;3.97;1.55;;;7.30;99.90;;;;;;10392539;28;20037;-55
2021/01/27 15:16:31;;;;;;;4.95;1.92;;;7.30;99.90;;;;;;10391463;28;20025;-55
2021/01/27 15:21:52;;;;;;;7.60;2.63;;;7.20;99.90;;;;;;10406447;28;20045;-54
2021/01/27 15:27:13;;;;;;;5.60;2.30;;;7.20;99.90;;;;;;10404367;28;20056;-55
2021/01/27 15:32:34;;;;;;;18.35;1.98;;;7.20;99.90;;;;;;10399014;27;20049;-55
2021/01/27 15:37:55;;;;;;;6.07;1.83;;;7.20;99.90;;;;;;10401508;27;20076;-55
2021/01/27 15:43:19;;;;;;;7.82;2.83;;;7.10;99.90;;;;;;10403609;28;20129;-55
2021/01/27 15:48:40;;;;;;;12.15;3.72;;;7.10;99.90;;;;;;10399187;27;20145;-54
2021/01/27 15:54:01;;;;;;;6.55;3.05;;;7.10;99.90;;;;;;10384419;28;20547;-54
2021/01/27 15:59:22;;;;;;;12.65;2.83;;;7.20;99.90;;;;;;10400624;28;20571;-55
2021/01/27 16:04:43;;;;;;;10.30;3.05;;;7.20;99.90;;;;;;10404014;27;20086;-55
2021/01/27 16:10:05;;;;;;;12.10;2.28;;;7.10;99.90;;;;;;10396934;27;20041;-55
2021/01/27 16:15:31;;;;;;;7.57;2.60;;;7.20;99.90;;;;;;10398340;28;20037;-55
2021/01/27 16:20:53;;;;;;;10.05;2.47;;;7.10;99.90;;;;;;10404865;27;20065;-54
2021/01/27 16:26:14;;;;;;;6.97;1.92;;;7.20;99.90;;;;;;10399786;28;20053;-54
2021/01/27 16:31:35;;;;;;;11.73;4.63;;;7.10;99.90;;;;;;10400497;27;20040;-54
2021/01/27 16:36:57;;;;;;;11.43;3.72;;;7.10;99.90;;;;;;10402659;27;20038;-54
2021/01/27 16:42:21;;;;;;;7.25;2.10;;;7.10;99.90;;;;;;10400101;28;20079;-54
2021/01/27 16:47:42;;;;;;;10.07;3.38;;;7.10;99.90;;;;;;10398557;27;20088;-54
2021/01/27 16:53:03;;;;;;;8.32;2.97;;;7.10;99.90;;;;;;10404866;28;20125;-54
2021/01/27 16:58:24;;;;;;;6.20;2.88;;;7.10;99.90;;;;;;10404290;27;20538;-54
2021/01/27 17:03:46;;;;;;;10.05;3.55;;;7.10;99.90;;;;;;10402744;27;20068;-54
2021/01/27 17:09:07;;;;;;;10.13;2.97;;;7.10;99.90;;;;;;10395050;28;20456;-54
2021/01/27 17:14:28;;;;;;;11.85;2.92;;;7.10;99.90;;;;;;10394623;27;20041;-54
2021/01/27 17:19:50;;;;;;;14.00;4.07;;;7.20;99.90;;;;;;10399091;28;20041;-54
2021/01/27 17:25:13;;;;;;;8.73;2.70;;;7.20;99.90;;;;;;10399763;27;20056;-55
2021/01/27 17:30:34;;;;;;;16.42;4.43;;;7.20;99.90;;;;;;10399646;27;20045;-55
2021/01/27 17:35:55;;;;;;;15.27;5.03;;;7.30;99.90;;;;;;10398472;27;20500;-54
2021/01/27 17:41:17;;;;;;;17.73;3.78;;;7.40;99.90;;;;;;10400226;28;20053;-54
2021/01/27 17:46:38;;;;;;;22.27;4.32;;;7.40;99.90;;;;;;10395182;28;20160;-54
2021/01/27 17:51:59;;;;;;;10.18;4.03;;;7.30;99.90;;;;;;10395245;28;20045;-54
2021/01/27 17:57:23;;;;;;;8.80;3.63;;;7.30;99.90;;;;;;10400744;27;20041;-54
2021/01/27 18:02:44;;;;;;;12.90;4.18;;;7.30;99.90;;;;;;10384929;27;20037;-54
2021/01/27 18:08:06;;;;;;;7.45;2.08;;;7.30;99.90;;;;;;10394102;27;20040;-54
2021/01/27 18:13:28;;;;;;;12.23;3.67;;;7.30;99.90;;;;;;10403851;28;20075;-54
2021/01/27 18:18:49;;;;;;;10.63;4.05;;;7.30;99.90;;;;;;10392715;27;20049;-54
2021/01/27 18:24:10;;;;;;;11.13;4.68;;;7.40;99.90;;;;;;10389505;27;20132;-55
2021/01/27 18:29:31;;;;;;;9.82;3.97;;;7.40;99.90;;;;;;10390512;27;20069;-55
2021/01/27 18:34:52;;;;;;;14.50;3.28;;;7.40;99.90;;;;;;10395224;27;20072;-54
2021/01/27 18:40:14;;;;;;;9.90;3.03;;;7.40;99.90;;;;;;10405681;27;20037;-54
2021/01/27 18:45:39;;;;;;;10.88;2.97;;;7.40;99.90;;;;;;10397088;27;20270;-55
2021/01/27 18:51:03;;;;;;;10.80;3.20;;;7.40;99.90;;;;;;10403752;27;20053;-55
2021/01/27 18:56:24;;;;;;;10.88;3.67;;;7.40;99.90;;;;;;10385849;27;20049;-55
2021/01/27 19:01:45;;;;;;;26.42;5.35;;;7.50;99.90;;;;;;10383051;27;20706;-54
2021/01/27 19:07:07;;;;;;;11.48;3.17;;;7.40;99.90;;;;;;10400674;27;20404;-54
2021/01/27 19:12:28;;;;;;;18.85;5.07;;;7.30;99.90;;;;;;10406462;27;20045;-55
2021/01/27 19:17:50;;;;;;;12.90;3.33;;;7.30;99.90;;;;;;10398869;27;20044;-54
2021/01/27 19:23:11;;;;;;;18.50;6.80;;;7.40;99.90;;;;;;10401153;27;20057;-54
2021/01/27 19:28:31;;;;;;;15.98;4.63;;;7.50;99.90;;;;;;10399326;27;20385;-55
2021/01/27 19:33:53;;;;;;;14.55;3.85;;;7.50;99.90;;;;;;10402359;27;20294;-54
2021/01/27 19:39:15;;;;;;;13.95;3.42;;;7.50;99.90;;;;;;10400263;27;21453;-54
2021/01/27 19:44:38;;;;;;;9.55;3.30;;;7.60;99.90;;;;;;10401899;27;20221;-55
2021/01/27 19:50:00;;;;;;;16.30;4.53;;;7.60;99.90;;;;;;10404651;27;20037;-55
2021/01/27 19:55:22;;;;;;;10.52;3.65;;;7.60;99.90;;;;;;10396003;27;20049;-54
2021/01/27 20:00:44;;;;;;;16.40;4.85;;;7.50;99.90;;;;;;10397257;27;20033;-54
2021/01/27 20:06:06;;;;;;;8.77;3.20;;;7.50;99.90;;;;;;10398512;27;20693;-55
2021/01/27 20:11:26;;;;;;;11.55;3.75;;;7.50;99.90;;;;;;10399405;27;20044;-54
2021/01/27 20:16:47;;;;;;;25.08;5.53;;;7.50;99.90;;;;;;10399005;27;20109;-54
2021/01/27 20:22:08;;;;;;;10.60;3.58;;;7.50;99.90;;;;;;10405432;27;20045;-55
2021/01/27 20:27:29;;;;;;;8.27;3.47;;;7.50;99.90;;;;;;10400180;27;20069;-55
2021/01/27 20:32:52;;;;;;;13.90;5.10;;;7.60;99.90;;;;;;10402189;27;20105;-54
2021/01/27 20:38:17;;;;;;;16.35;4.88;;;7.50;99.90;;;;;;10398130;27;20120;-55
2021/01/27 20:43:40;;;;;;;10.25;3.00;;;7.40;99.90;;;;;;10396626;27;20235;-55
2021/01/27 20:49:01;;;;;;;11.93;4.50;;;7.40;99.90;;;;;;10398110;27;20061;-54
2021/01/27 20:54:22;;;;;;;24.75;4.25;;;7.40;99.90;;;;;;10397874;27;20083;-54
2021/01/27 20:59:43;;;;;;;15.90;5.28;;;7.30;99.90;;;;;;10396058;27;20897;-54
2021/01/27 21:05:04;;;;;;;14.00;3.58;;;7.30;99.90;;;;;;10397134;27;20317;-55
2021/01/27 21:10:28;;;;;;;13.70;2.97;;;7.40;99.90;;;;;;10398996;27;20402;-55
2021/01/27 21:15:50;;;;;;;14.32;3.05;;;7.30;99.90;;;;;;10400075;27;20048;-55
2021/01/27 21:21:11;;;;;;;8.80;2.10;;;7.20;99.90;;;;;;10396995;27;20033;-54
2021/01/27 21:26:32;;;;;;;7.30;3.65;;;7.20;99.90;;;;;;10396134;27;20124;-55
2021/01/27 21:31:53;;;;;;;10.18;3.72;;;7.20;99.90;;;;;;10392535;27;20072;-54
2021/01/27 21:37:14;;;;;;;11.40;3.55;;;7.20;99.90;;;;;;10402328;27;20105;-54
2021/01/27 21:42:36;;;;;;;10.07;2.47;;;7.20;99.90;;;;;;10400262;27;20517;-54
2021/01/27 21:47:57;;;;;;;6.35;1.95;;;7.20;99.90;;;;;;10393182;27;20033;-54
2021/01/27 21:53:19;;;;;;;12.63;4.47;;;7.20;99.90;;;;;;10397047;27;20045;-54
2021/01/27 21:58:40;;;;;;;10.82;2.75;;;7.20;99.90;;;;;;10389382;27;20096;-55
2021/01/27 22:04:02;;;;;;;12.13;4.25;;;7.10;99.90;;;;;;10389373;28;20044;-55
2021/01/27 22:09:23;;;;;;;10.80;3.15;;;7.10;99.90;;;;;;10398888;27;20114;-54
2021/01/27 22:14:44;;;;;;;9.82;2.88;;;7.10;99.90;;;;;;10402641;27;20041;-54
2021/01/27 22:20:07;;;;;;;20.88;4.35;;;7.00;99.90;;;;;;10408556;28;20037;-54
2021/01/27 22:25:28;;;;;;;11.45;2.90;;;7.10;99.90;;;;;;10400049;27;20078;-54
2021/01/27 22:30:49;;;;;;;7.82;2.97;;;7.10;99.90;;;;;;10418516;28;20432;-54
2021/01/27 22:36:10;;;;;;;11.88;3.50;;;7.00;99.90;;;;;;10395468;27;20526;-54
2021/01/27 22:41:32;;;;;;;9.50;3.17;;;7.00;99.90;;;;;;10409757;28;20097;-54
2021/01/27 22:46:53;;;;;;;14.80;3.65;;;7.00;99.90;;;;;;10411494;28;20034;-54
2021/01/27 22:52:14;;;;;;;15.48;3.88;;;7.00;99.90;;;;;;10403911;28;20747;-54
2021/01/27 22:57:35;;;;;;;15.23;3.50;;;7.10;99.90;;;;;;10402834;28;20051;-54
2021/01/27 23:02:57;;;;;;;13.40;4.97;;;7.10;99.90;;;;;;10387865;27;20472;-54
2021/01/27 23:08:25;;;;;;;14.32;4.00;;;7.10;99.90;;;;;;10395949;27;20412;-54
2021/01/27 23:13:46;;;;;;;11.00;3.90;;;7.10;99.90;;;;;;10401376;27;20089;-54
2021/01/27 23:19:08;;;;;;;9.45;2.78;;;7.00;99.90;;;;;;10391719;28;20073;-54
2021/01/27 23:24:29;;;;;;;11.43;3.03;;;7.00;99.90;;;;;;10395832;28;20049;-55
2021/01/27 23:29:50;;;;;;;13.98;5.80;;;7.00;99.90;;;;;;10390986;28;20062;-54
2021/01/27 23:35:18;;;;;;;12.40;3.25;;;7.10;99.90;;;;;;10398365;28;20047;-55
2021/01/27 23:40:39;;;;;;;11.57;3.95;;;7.10;99.90;;;;;;10399302;27;20529;-54
2021/01/27 23:46:00;;;;;;;14.15;5.35;;;7.00;99.90;;;;;;10397109;27;20054;-54
2021/01/27 23:51:22;;;;;;;7.70;3.42;;;7.00;99.90;;;;;;10404643;28;20048;-56
2021/01/27 23:56:43;;;;;;;9.52;2.40;;;7.10;99.90;;;;;;10390869;28;20050;-54
